createdAt,value
2022-10-01T00:02:04.552Z,35.40
2022-10-01T00:04:31.724Z,34.35
2022-10-01T00:07:03.105Z,34.40
2022-10-01T00:09:31.676Z,34.35
2022-10-01T00:11:59.859Z,33.92
2022-10-01T00:14:28.061Z,39.75
2022-10-01T00:16:55.095Z,39.05
2022-10-01T00:19:22.923Z,37.03
2022-10-01T00:21:49.891Z,35.83
2022-10-01T00:24:16.885Z,36.90
2022-10-01T00:26:45.554Z,41.38
2022-10-01T00:29:14.892Z,56.97
2022-10-01T00:31:42.834Z,51.67
2022-10-01T00:34:15.048Z,40.92
2022-10-01T00:36:42.282Z,39.92
2022-10-01T00:39:12.301Z,43.42
2022-10-01T00:41:39.696Z,36.60
2022-10-01T00:44:39.326Z,36.47
2022-10-01T00:47:35.328Z,43.33
2022-10-01T00:50:34.875Z,40.35
2022-10-01T00:53:08.328Z,43.05
2022-10-01T00:55:56.371Z,41.30
2022-10-01T00:58:25.240Z,39.88
2022-10-01T01:00:56.731Z,39.33
2022-10-01T01:03:24.672Z,35.08
2022-10-01T01:05:54.385Z,40.17
2022-10-01T01:08:21.502Z,39.20
2022-10-01T01:11:24.954Z,40.97
2022-10-01T01:13:57.821Z,38.25
2022-10-01T01:16:35.731Z,43.53
2022-10-01T01:19:24.560Z,41.67
2022-10-01T01:22:00.850Z,44.55
2022-10-01T01:24:33.259Z,43.10
2022-10-01T01:27:27.518Z,41.10
2022-10-01T01:30:18.310Z,37.67
2022-10-01T01:33:05.455Z,42.03
2022-10-01T01:35:46.067Z,41.80
2022-10-01T01:38:24.456Z,40.03
2022-10-01T01:40:56.405Z,39.70
2022-10-01T01:43:33.274Z,44.33
2022-10-01T01:46:05.838Z,47.75
2022-10-01T01:48:36.574Z,44.72
2022-10-01T01:51:20.629Z,39.70
2022-10-01T01:53:47.804Z,43.33
2022-10-01T01:56:15.238Z,50.63
2022-10-01T01:58:42.281Z,45.78
2022-10-01T02:01:38.987Z,42.67
2022-10-01T02:04:32.445Z,49.47
2022-10-01T02:07:16.102Z,47.00
2022-10-01T02:10:12.006Z,41.05
2022-10-01T02:13:22.168Z,46.45
2022-10-01T02:16:18.990Z,43.83
2022-10-01T02:19:18.665Z,45.47
2022-10-01T02:22:05.680Z,46.92
2022-10-01T02:24:41.647Z,42.00
2022-10-01T02:27:27.687Z,45.72
2022-10-01T02:30:05.188Z,43.30
2022-10-01T02:32:32.966Z,44.13
2022-10-01T02:35:02.086Z,43.05
2022-10-01T02:37:29.313Z,45.67
2022-10-01T02:39:58.888Z,45.72
2022-10-01T02:42:29.978Z,41.13
2022-10-01T02:45:03.021Z,43.83
2022-10-01T02:50:07.962Z,40.15
2022-10-01T02:52:39.778Z,42.42
2022-10-01T02:55:14.524Z,43.55
2022-10-01T02:57:42.759Z,40.00
2022-10-01T03:00:15.325Z,37.13
2022-10-01T03:02:42.540Z,41.47
2022-10-01T03:05:09.765Z,40.28
2022-10-01T03:07:36.749Z,41.13
2022-10-01T03:10:05.216Z,44.50
2022-10-01T03:12:32.809Z,43.67
2022-10-01T03:14:59.720Z,41.60
2022-10-01T03:17:27.130Z,43.65
2022-10-01T03:19:54.244Z,39.10
2022-10-01T03:22:23.120Z,45.28
2022-10-01T03:24:54.052Z,44.88
2022-10-01T03:27:22.292Z,47.50
2022-10-01T03:29:49.493Z,53.38
2022-10-01T03:32:17.515Z,51.30
2022-10-01T03:34:44.940Z,43.20
2022-10-01T03:37:11.816Z,64.10
2022-10-01T03:39:38.742Z,60.83
2022-10-01T03:42:06.045Z,70.15
2022-10-01T03:44:33.779Z,115.03
2022-10-01T03:47:00.817Z,97.13
2022-10-01T03:49:27.998Z,69.88
2022-10-01T03:51:55.243Z,50.83
2022-10-01T03:54:22.574Z,39.90
2022-10-01T03:56:49.586Z,40.90
2022-10-01T03:59:16.565Z,35.53
2022-10-01T04:01:43.522Z,50.00
2022-10-01T04:04:10.500Z,58.95
2022-10-01T04:06:37.407Z,62.35
2022-10-01T04:09:04.794Z,58.22
2022-10-01T04:11:32.323Z,57.22
2022-10-01T04:13:59.554Z,56.42
2022-10-01T04:16:26.556Z,55.05
2022-10-01T04:18:54.152Z,43.60
2022-10-01T04:21:21.318Z,59.28
2022-10-01T04:23:49.893Z,66.63
2022-10-01T04:26:18.685Z,56.45
2022-10-01T04:28:46.790Z,71.63
2022-10-01T04:31:26.896Z,81.15
2022-10-01T04:33:57.135Z,51.97
2022-10-01T04:36:25.664Z,58.78
2022-10-01T04:38:59.389Z,44.15
2022-10-01T04:41:30.879Z,40.70
2022-10-01T04:43:59.934Z,42.25
2022-10-01T04:46:30.189Z,40.63
2022-10-01T04:48:57.594Z,43.53
2022-10-01T04:51:24.653Z,43.35
2022-10-01T04:53:51.612Z,42.92
2022-10-01T04:56:18.561Z,43.85
2022-10-01T04:58:45.733Z,45.10
2022-10-01T05:01:12.761Z,44.47
2022-10-01T05:03:39.922Z,44.92
2022-10-01T05:06:06.900Z,43.35
2022-10-01T05:08:33.790Z,42.75
2022-10-01T05:11:00.743Z,46.38
2022-10-01T05:13:30.160Z,46.33
2022-10-01T05:15:58.175Z,68.88
2022-10-01T05:18:25.211Z,68.40
2022-10-01T05:20:52.174Z,51.30
2022-10-01T05:23:19.043Z,49.75
2022-10-01T05:25:46.884Z,55.53
2022-10-01T05:28:18.324Z,61.22
2022-10-01T05:30:48.199Z,50.58
2022-10-01T05:33:15.078Z,46.53
2022-10-01T05:35:42.343Z,50.30
2022-10-01T05:38:09.236Z,46.53
2022-10-01T05:40:36.461Z,50.67
2022-10-01T05:43:04.428Z,46.28
2022-10-01T05:45:32.776Z,44.85
2022-10-01T05:48:06.325Z,45.65
2022-10-01T05:50:39.212Z,44.08
2022-10-01T05:53:08.450Z,47.17
2022-10-01T05:55:35.845Z,46.90
2022-10-01T05:58:06.492Z,49.83
2022-10-01T06:00:34.793Z,101.38
2022-10-01T06:03:04.353Z,49.05
2022-10-01T06:05:33.795Z,42.03
2022-10-01T06:08:01.466Z,49.60
2022-10-01T06:10:30.340Z,46.58
2022-10-01T06:13:05.673Z,42.33
2022-10-01T06:15:38.818Z,38.63
2022-10-01T06:20:35.064Z,41.85
2022-10-01T06:23:02.650Z,40.88
2022-10-01T06:25:29.759Z,38.10
2022-10-01T06:28:01.091Z,41.08
2022-10-01T06:30:31.773Z,44.80
2022-10-01T06:33:13.747Z,41.88
2022-10-01T06:35:44.091Z,50.92
2022-10-01T06:38:11.882Z,43.92
2022-10-01T06:40:39.718Z,39.00
2022-10-01T06:43:10.050Z,47.25
2022-10-01T06:45:42.928Z,42.97
2022-10-01T06:48:14.603Z,50.25
2022-10-01T06:50:44.296Z,35.88
2022-10-01T06:53:13.103Z,37.80
2022-10-01T06:55:40.603Z,38.55
2022-10-01T06:58:14.380Z,39.30
2022-10-01T07:00:42.623Z,50.50
2022-10-01T07:03:16.910Z,48.28
2022-10-01T07:05:46.718Z,38.70
2022-10-01T07:08:14.081Z,40.03
2022-10-01T07:10:42.211Z,38.83
2022-10-01T07:13:12.505Z,37.55
2022-10-01T07:15:39.762Z,34.58
2022-10-01T07:18:09.576Z,38.45
2022-10-01T07:20:39.857Z,34.67
2022-10-01T07:23:12.201Z,34.47
2022-10-01T07:25:44.209Z,33.27
2022-10-01T07:28:18.918Z,33.40
2022-10-01T07:31:06.012Z,41.45
2022-10-01T07:33:33.204Z,37.78
2022-10-01T07:36:03.203Z,32.90
2022-10-01T07:38:30.776Z,32.55
2022-10-01T07:40:59.005Z,38.10
2022-10-01T07:43:26.103Z,37.80
2022-10-01T07:45:55.207Z,40.40
2022-10-01T07:48:22.247Z,33.67
2022-10-01T07:50:49.603Z,48.65
2022-10-01T07:53:17.137Z,33.95
2022-10-01T07:55:44.886Z,39.72
2022-10-01T07:58:12.420Z,61.25
2022-10-01T08:00:39.647Z,90.40
2022-10-01T08:03:07.101Z,50.20
2022-10-01T08:05:35.921Z,38.92
2022-10-01T08:08:07.095Z,38.08
2022-10-01T08:10:36.673Z,60.88
2022-10-01T08:13:15.654Z,36.78
2022-10-01T08:15:45.772Z,28.38
2022-10-01T08:18:13.310Z,26.50
2022-10-01T08:20:40.857Z,26.58
2022-10-01T08:23:11.883Z,21.55
2022-10-01T08:25:40.008Z,25.23
2022-10-01T08:28:09.050Z,26.00
2022-10-01T08:30:41.833Z,31.23
2022-10-01T08:33:12.214Z,47.42
2022-10-01T08:35:40.902Z,31.23
2022-10-01T08:38:08.339Z,29.20
2022-10-01T08:40:47.200Z,21.80
2022-10-01T08:43:38.894Z,22.55
2022-10-01T08:46:18.401Z,38.53
2022-10-01T08:49:12.641Z,50.47
2022-10-01T08:51:57.725Z,20.10
2022-10-01T08:54:51.568Z,23.65
2022-10-01T08:57:24.518Z,18.65
2022-10-01T08:59:57.821Z,22.73
2022-10-01T09:02:30.095Z,28.65
2022-10-01T09:05:02.943Z,26.80
2022-10-01T09:07:55.088Z,43.17
2022-10-01T09:10:33.881Z,15.80
2022-10-01T09:13:24.083Z,16.73
2022-10-01T09:15:58.750Z,24.48
2022-10-01T09:18:44.258Z,71.65
2022-10-01T09:21:36.831Z,46.90
2022-10-01T09:24:15.398Z,16.80
2022-10-01T09:26:48.882Z,51.47
2022-10-01T09:30:00.813Z,25.25
2022-10-01T09:32:36.010Z,20.60
2022-10-01T09:35:34.708Z,18.75
2022-10-01T09:38:11.518Z,21.15
2022-10-01T09:40:57.026Z,19.77
2022-10-01T09:43:29.346Z,17.70
2022-10-01T09:45:57.458Z,31.93
2022-10-01T09:48:37.599Z,20.90
2022-10-01T09:51:19.396Z,16.50
2022-10-01T09:54:13.122Z,38.70
2022-10-01T09:56:53.898Z,44.63
2022-10-01T09:59:44.291Z,25.67
2022-10-01T10:02:32.142Z,23.70
2022-10-01T10:05:05.890Z,21.05
2022-10-01T10:07:35.100Z,16.15
2022-10-01T10:10:36.597Z,15.43
2022-10-01T10:13:31.885Z,14.45
2022-10-01T10:16:29.544Z,24.20
2022-10-01T10:19:11.320Z,117.50
2022-10-01T10:21:38.381Z,16.77
2022-10-01T10:24:23.458Z,24.88
2022-10-01T10:26:58.043Z,15.57
2022-10-01T10:29:31.759Z,17.98
2022-10-01T10:32:25.881Z,19.15
2022-10-01T10:35:02.067Z,17.50
2022-10-01T10:37:36.277Z,16.95
2022-10-01T10:40:08.285Z,15.60
2022-10-01T10:42:38.741Z,18.73
2022-10-01T10:45:20.599Z,24.60
2022-10-01T10:47:52.501Z,15.88
2022-10-01T10:50:32.567Z,17.88
2022-10-01T10:52:59.675Z,14.07
2022-10-01T10:55:31.159Z,22.23
2022-10-01T10:58:13.780Z,14.05
2022-10-01T11:00:52.515Z,14.80
2022-10-01T11:03:28.151Z,21.45
2022-10-01T11:06:08.836Z,17.25
2022-10-01T11:08:35.871Z,90.93
2022-10-01T11:11:33.860Z,17.30
2022-10-01T11:14:32.687Z,19.67
2022-10-01T11:17:24.918Z,15.50
2022-10-01T11:20:33.584Z,17.38
2022-10-01T11:23:28.129Z,15.82
2022-10-01T11:26:26.996Z,14.57
2022-10-01T11:29:22.228Z,50.47
2022-10-01T11:32:02.878Z,17.52
2022-10-01T11:34:54.944Z,18.02
2022-10-01T11:37:39.068Z,19.27
2022-10-01T11:40:41.856Z,14.95
2022-10-01T11:43:53.249Z,23.80
2022-10-01T11:46:42.982Z,22.98
2022-10-01T11:49:50.825Z,13.48
2022-10-01T11:52:52.699Z,16.27
2022-10-01T11:55:49.482Z,16.48
2022-10-01T11:58:54.751Z,15.40
2022-10-01T12:01:25.078Z,13.73
2022-10-01T12:04:37.907Z,13.85
2022-10-01T12:07:27.069Z,16.05
2022-10-01T12:10:38.738Z,14.48
2022-10-01T12:13:36.656Z,23.17
2022-10-01T12:16:40.166Z,18.75
2022-10-01T12:22:31.043Z,23.55
2022-10-01T12:24:58.041Z,18.90
2022-10-01T12:27:24.895Z,19.02
2022-10-01T12:30:03.953Z,20.65
2022-10-01T12:33:07.142Z,19.92
2022-10-01T12:35:55.760Z,15.95
2022-10-01T12:38:55.506Z,27.42
2022-10-01T12:42:13.568Z,25.88
2022-10-01T12:45:03.768Z,44.55
2022-10-01T12:47:48.262Z,22.33
2022-10-01T12:50:26.438Z,17.98
2022-10-01T12:53:16.335Z,19.42
2022-10-01T12:56:10.054Z,18.08
2022-10-01T12:59:24.379Z,30.75
2022-10-01T13:02:12.880Z,18.25
2022-10-01T13:05:19.950Z,19.77
2022-10-01T13:08:54.334Z,21.00
2022-10-01T13:11:42.544Z,17.77
2022-10-01T13:14:16.814Z,15.82
2022-10-01T13:16:54.561Z,16.98
2022-10-01T13:19:42.535Z,18.10
2022-10-01T13:22:34.559Z,20.67
2022-10-01T13:25:36.211Z,16.20
2022-10-01T13:28:31.777Z,19.13
2022-10-01T13:31:14.684Z,18.73
2022-10-01T13:33:42.023Z,18.08
2022-10-01T13:36:12.190Z,18.60
2022-10-01T13:38:39.046Z,18.75
2022-10-01T13:41:29.093Z,18.20
2022-10-01T13:44:11.626Z,25.83
2022-10-01T13:47:07.148Z,20.63
2022-10-01T13:49:36.772Z,17.98
2022-10-01T13:52:06.002Z,41.05
2022-10-01T13:54:54.204Z,21.77
2022-10-01T13:57:39.299Z,16.90
2022-10-01T14:00:12.103Z,14.70
2022-10-01T14:02:59.811Z,16.70
2022-10-01T14:05:42.678Z,15.60
2022-10-01T14:08:17.368Z,15.68
2022-10-01T14:11:21.662Z,15.82
2022-10-01T14:14:10.669Z,19.00
2022-10-01T14:16:47.592Z,21.08
2022-10-01T14:19:27.394Z,18.00
2022-10-01T14:22:21.231Z,16.38
2022-10-01T14:25:21.019Z,17.92
2022-10-01T14:28:02.557Z,20.30
2022-10-01T14:31:19.957Z,23.63
2022-10-01T14:34:31.205Z,19.13
2022-10-01T14:36:58.930Z,22.63
2022-10-01T14:39:29.942Z,22.50
2022-10-01T14:41:58.566Z,21.98
2022-10-01T14:44:38.256Z,21.65
2022-10-01T14:47:24.536Z,23.30
2022-10-01T14:49:54.268Z,20.17
2022-10-01T14:52:31.476Z,24.25
2022-10-01T14:55:14.911Z,17.73
2022-10-01T14:57:47.336Z,23.65
2022-10-01T15:00:26.284Z,20.52
2022-10-01T15:03:08.071Z,20.23
2022-10-01T15:05:37.179Z,18.45
2022-10-01T15:08:47.277Z,20.20
2022-10-01T15:11:34.044Z,21.80
2022-10-01T15:14:08.352Z,23.08
2022-10-01T15:16:37.004Z,29.92
2022-10-01T15:19:15.706Z,28.48
2022-10-01T15:21:58.720Z,30.17
2022-10-01T15:24:59.590Z,25.20
2022-10-01T15:27:27.059Z,26.27
2022-10-01T15:29:58.716Z,29.33
2022-10-01T15:32:28.188Z,26.35
2022-10-01T15:35:02.099Z,24.05
2022-10-01T15:37:36.042Z,28.27
2022-10-01T15:40:20.735Z,27.73
2022-10-01T15:43:07.586Z,30.17
2022-10-01T15:45:35.736Z,31.73
2022-10-01T15:48:02.898Z,30.73
2022-10-01T16:04:00.534Z,23.63
2022-10-01T16:06:45.262Z,21.73
2022-10-01T16:09:24.292Z,22.42
2022-10-01T16:12:09.144Z,22.38
2022-10-01T16:14:45.416Z,19.63
2022-10-01T16:17:20.684Z,22.08
2022-10-01T16:20:16.701Z,23.30
2022-10-01T16:22:44.523Z,26.10
2022-10-01T16:25:19.020Z,40.55
2022-10-01T16:28:26.648Z,38.10
2022-10-01T16:30:56.041Z,34.28
2022-10-01T16:33:23.787Z,27.85
2022-10-01T16:35:53.714Z,26.35
2022-10-01T16:38:21.594Z,22.95
2022-10-01T16:40:49.101Z,40.65
2022-10-01T16:43:25.780Z,41.10
2022-10-01T16:45:54.392Z,50.63
2022-10-01T16:48:23.188Z,31.77
2022-10-01T16:50:53.854Z,33.35
2022-10-01T16:53:22.666Z,35.80
2022-10-01T16:55:50.443Z,36.60
2022-10-01T16:58:20.259Z,33.63
2022-10-01T17:00:48.420Z,31.30
2022-10-01T17:03:22.222Z,37.90
2022-10-01T17:05:50.154Z,29.52
2022-10-01T17:08:17.892Z,28.83
2022-10-01T17:10:58.629Z,32.10
2022-10-01T17:13:29.061Z,27.70
2022-10-01T17:15:56.975Z,26.00
2022-10-01T17:18:24.848Z,27.38
2022-10-01T17:20:52.865Z,25.65
2022-10-01T17:23:24.149Z,26.48
2022-10-01T17:25:51.782Z,26.15
2022-10-01T17:28:21.156Z,30.65
2022-10-01T17:30:50.339Z,26.98
2022-10-01T17:33:20.489Z,32.92
2022-10-01T17:35:52.726Z,25.63
2022-10-01T17:38:22.033Z,26.87
2022-10-01T17:40:56.210Z,28.45
2022-10-01T17:43:24.747Z,27.55
2022-10-01T17:46:03.957Z,27.35
2022-10-01T17:48:31.632Z,32.15
2022-10-01T17:51:07.206Z,38.85
2022-10-01T17:53:42.087Z,33.00
2022-10-01T17:56:21.445Z,37.67
2022-10-01T17:58:49.009Z,40.00
2022-10-01T18:01:22.107Z,27.27
2022-10-01T18:03:55.851Z,43.47
2022-10-01T18:06:25.689Z,54.78
2022-10-01T18:08:55.965Z,54.40
2022-10-01T18:11:26.553Z,20.92
2022-10-01T18:13:55.877Z,17.60
2022-10-01T18:16:25.140Z,19.15
2022-10-01T18:21:51.243Z,23.63
2022-10-01T18:24:19.099Z,14.02
2022-10-01T18:26:49.414Z,14.88
2022-10-01T18:29:27.450Z,14.80
2022-10-01T18:32:08.464Z,14.13
2022-10-01T18:35:00.883Z,15.82
2022-10-01T18:37:52.529Z,14.10
2022-10-01T18:40:40.586Z,16.75
2022-10-01T18:43:26.290Z,14.13
2022-10-01T18:46:15.156Z,14.75
2022-10-01T18:49:04.953Z,12.60
2022-10-01T18:52:01.376Z,14.77
2022-10-01T18:55:21.339Z,23.88
2022-10-01T18:57:58.639Z,22.80
2022-10-01T19:00:42.762Z,15.63
2022-10-01T19:03:37.342Z,14.63
2022-10-01T19:06:41.249Z,21.98
2022-10-01T19:09:46.692Z,25.80
2022-10-01T19:12:42.355Z,17.85
2022-10-01T19:15:17.121Z,17.77
2022-10-01T19:18:39.904Z,14.85
2022-10-01T19:21:28.890Z,15.82
2022-10-01T19:24:52.665Z,14.85
2022-10-01T19:28:04.055Z,70.28
2022-10-01T19:31:15.683Z,32.25
2022-10-01T19:33:55.893Z,17.58
2022-10-01T19:36:38.979Z,42.28
2022-10-01T19:39:22.935Z,14.73
2022-10-01T19:42:18.382Z,76.75
2022-10-01T19:45:30.883Z,122.03
2022-10-01T19:48:18.214Z,10.70
2022-10-01T19:50:55.884Z,26.80
2022-10-01T19:53:37.824Z,15.85
2022-10-01T19:56:07.196Z,13.38
2022-10-01T19:58:34.827Z,18.10
2022-10-01T20:01:04.741Z,13.30
2022-10-01T20:04:03.543Z,18.02
2022-10-01T20:06:41.164Z,17.95
2022-10-01T20:09:41.168Z,19.20
2022-10-01T20:12:36.458Z,17.30
2022-10-01T20:15:20.191Z,14.68
2022-10-01T20:18:28.243Z,33.67
2022-10-01T20:21:27.234Z,12.25
2022-10-01T20:24:29.129Z,10.73
2022-10-01T20:27:20.210Z,17.23
2022-10-01T20:30:34.425Z,14.75
2022-10-01T20:33:13.800Z,16.90
2022-10-01T20:35:54.035Z,101.75
2022-10-01T20:38:44.378Z,29.75
2022-10-01T20:41:20.251Z,21.50
2022-10-01T20:43:54.010Z,17.63
2022-10-01T20:46:50.554Z,23.52
2022-10-01T20:49:38.878Z,13.13
2022-10-01T20:53:14.744Z,16.80
2022-10-01T20:55:50.597Z,11.65
2022-10-01T20:58:25.251Z,17.30
2022-10-01T21:01:04.097Z,11.18
2022-10-01T21:03:38.995Z,23.92
2022-10-01T21:06:16.869Z,35.28
2022-10-01T21:09:09.786Z,14.32
2022-10-01T21:11:53.099Z,17.00
2022-10-01T21:14:56.012Z,16.15
2022-10-01T21:17:43.834Z,37.63
2022-10-01T21:20:51.149Z,12.48
2022-10-01T21:24:07.381Z,13.35
2022-10-01T21:27:18.877Z,13.90
2022-10-01T21:30:02.239Z,14.45
2022-10-01T21:35:56.882Z,16.73
2022-10-01T21:38:35.848Z,14.13
2022-10-01T21:42:07.753Z,17.30
2022-10-01T21:45:12.487Z,15.57
2022-10-01T21:48:32.699Z,14.30
2022-10-01T21:51:13.764Z,21.83
2022-10-01T21:53:54.272Z,21.17
2022-10-01T21:56:31.068Z,20.25
2022-10-01T21:59:27.375Z,15.75
2022-10-01T22:02:33.938Z,15.60
2022-10-01T22:05:40.917Z,17.65
2022-10-01T22:08:29.888Z,16.70
2022-10-01T22:11:09.698Z,16.48
2022-10-01T22:13:55.128Z,17.17
2022-10-01T22:16:28.878Z,18.00
2022-10-01T22:19:00.814Z,18.95
2022-10-01T22:21:54.074Z,15.25
2022-10-01T22:24:34.287Z,15.98
2022-10-01T22:27:23.079Z,14.65
2022-10-01T22:30:12.478Z,42.35
2022-10-01T22:32:57.105Z,17.05
2022-10-01T22:35:43.901Z,17.50
2022-10-01T22:38:29.543Z,14.77
2022-10-01T22:41:10.138Z,19.95
2022-10-01T22:43:37.864Z,16.52
2022-10-01T22:46:44.924Z,16.13
2022-10-01T22:49:52.860Z,15.23
2022-10-01T22:52:40.174Z,20.33
2022-10-01T22:55:42.824Z,17.55
2022-10-01T22:58:32.082Z,15.88
2022-10-01T23:01:21.897Z,16.52
2022-10-01T23:04:07.778Z,17.23
2022-10-01T23:07:02.305Z,16.45
2022-10-01T23:10:08.704Z,18.70
2022-10-01T23:12:49.416Z,14.05
2022-10-01T23:15:43.326Z,13.98
2022-10-01T23:18:20.339Z,15.50
2022-10-01T23:21:12.015Z,17.65
2022-10-01T23:23:49.103Z,16.63
2022-10-01T23:26:30.179Z,15.75
2022-10-01T23:29:14.362Z,12.95
2022-10-01T23:32:22.701Z,16.90
2022-10-01T23:35:06.974Z,15.10
2022-10-01T23:37:50.640Z,14.27
2022-10-01T23:40:23.213Z,13.65
2022-10-01T23:43:27.637Z,16.65
2022-10-01T23:46:35.658Z,31.77
2022-10-01T23:49:15.188Z,17.67
2022-10-01T23:52:13.262Z,14.88
2022-10-01T23:54:57.484Z,13.82
2022-10-01T23:57:26.678Z,16.90
